sensor_id;sensor_type;location;lat;lon;timestamp;P1;durP1;ratioP1;P2;durP2;ratioP2
8092;SDS011;4089;52.420;13.334;2023-06-10T00:02:04;35.80;;;6.40;;
8092;SDS011;4089;52.420;13.334;2023-06-10T00:04:32;36.00;;;6.93;;
8092;SDS011;4089;52.420;13.334;2023-06-10T00:06:58;35.27;;;6.00;;
8092;SDS011;4089;52.420;13.334;2023-06-10T00:09:25;36.63;;;6.37;;
8092;SDS011;4089;52.420;13.334;2023-06-10T00:11:52;31.30;;;6.30;;
8092;SDS011;4089;52.420;13.334;2023-06-10T00:14:19;33.57;;;5.80;;
8092;SDS011;4089;52.420;13.334;2023-06-10T00:16:46;34.57;;;6.17;;
8092;SDS011;4089;52.420;13.334;2023-06-10T00:19:13;39.77;;;6.83;;
8092;SDS011;4089;52.420;13.334;2023-06-10T00:21:41;36.50;;;6.37;;
8092;SDS011;4089;52.420;13.334;2023-06-10T00:24:11;41.23;;;6.90;;
8092;SDS011;4089;52.420;13.334;2023-06-10T00:26:40;35.40;;;6.37;;
8092;SDS011;4089;52.420;13.334;2023-06-10T00:29:07;44.30;;;6.87;;
8092;SDS011;4089;52.420;13.334;2023-06-10T00:31:35;37.33;;;6.10;;
8092;SDS011;4089;52.420;13.334;2023-06-10T00:34:03;36.60;;;6.70;;
8092;SDS011;4089;52.420;13.334;2023-06-10T00:36:30;38.00;;;6.90;;
8092;SDS011;4089;52.420;13.334;2023-06-10T00:38:57;40.17;;;6.90;;
8092;SDS011;4089;52.420;13.334;2023-06-10T00:41:24;42.33;;;6.87;;
8092;SDS011;4089;52.420;13.334;2023-06-10T00:43:52;36.83;;;5.23;;
8092;SDS011;4089;52.420;13.334;2023-06-10T00:46:19;33.70;;;6.03;;
8092;SDS011;4089;52.420;13.334;2023-06-10T00:48:47;39.87;;;6.60;;
8092;SDS011;4089;52.420;13.334;2023-06-10T00:51:15;34.30;;;6.40;;
8092;SDS011;4089;52.420;13.334;2023-06-10T00:53:43;38.47;;;6.97;;
8092;SDS011;4089;52.420;13.334;2023-06-10T00:56:11;33.70;;;5.97;;
8092;SDS011;4089;52.420;13.334;2023-06-10T00:58:37;35.83;;;6.70;;
8092;SDS011;4089;52.420;13.334;2023-06-10T01:01:04;35.03;;;7.17;;
8092;SDS011;4089;52.420;13.334;2023-06-10T01:03:31;37.43;;;6.63;;
8092;SDS011;4089;52.420;13.334;2023-06-10T01:06:18;35.80;;;6.10;;
8092;SDS011;4089;52.420;13.334;2023-06-10T01:08:50;37.40;;;6.30;;
8092;SDS011;4089;52.420;13.334;2023-06-10T01:11:57;39.53;;;6.10;;
8092;SDS011;4089;52.420;13.334;2023-06-10T01:14:35;37.13;;;6.60;;
8092;SDS011;4089;52.420;13.334;2023-06-10T01:17:02;36.77;;;7.17;;
8092;SDS011;4089;52.420;13.334;2023-06-10T01:19:31;33.20;;;6.33;;
8092;SDS011;4089;52.420;13.334;2023-06-10T01:22:00;37.63;;;6.30;;
8092;SDS011;4089;52.420;13.334;2023-06-10T01:24:27;32.27;;;5.80;;
8092;SDS011;4089;52.420;13.334;2023-06-10T01:26:55;37.93;;;6.17;;
8092;SDS011;4089;52.420;13.334;2023-06-10T01:29:31;33.93;;;6.63;;
8092;SDS011;4089;52.420;13.334;2023-06-10T01:32:08;32.17;;;6.40;;
8092;SDS011;4089;52.420;13.334;2023-06-10T01:34:43;42.63;;;6.33;;
8092;SDS011;4089;52.420;13.334;2023-06-10T01:37:12;39.10;;;6.50;;
8092;SDS011;4089;52.420;13.334;2023-06-10T01:39:41;37.77;;;6.90;;
8092;SDS011;4089;52.420;13.334;2023-06-10T01:42:09;36.10;;;6.53;;
8092;SDS011;4089;52.420;13.334;2023-06-10T01:44:38;33.57;;;6.03;;
8092;SDS011;4089;52.420;13.334;2023-06-10T01:47:06;34.97;;;6.47;;
8092;SDS011;4089;52.420;13.334;2023-06-10T01:49:33;37.37;;;6.97;;
8092;SDS011;4089;52.420;13.334;2023-06-10T01:51:59;37.50;;;6.37;;
8092;SDS011;4089;52.420;13.334;2023-06-10T01:54:26;40.73;;;6.63;;
8092;SDS011;4089;52.420;13.334;2023-06-10T01:56:53;34.37;;;5.70;;
8092;SDS011;4089;52.420;13.334;2023-06-10T01:59:20;36.37;;;6.33;;
8092;SDS011;4089;52.420;13.334;2023-06-10T02:01:46;39.50;;;7.57;;
8092;SDS011;4089;52.420;13.334;2023-06-10T02:04:13;41.87;;;7.30;;
8092;SDS011;4089;52.420;13.334;2023-06-10T02:06:40;41.50;;;6.07;;
8092;SDS011;4089;52.420;13.334;2023-06-10T02:09:07;33.23;;;6.07;;
8092;SDS011;4089;52.420;13.334;2023-06-10T02:11:34;40.50;;;6.70;;
8092;SDS011;4089;52.420;13.334;2023-06-10T02:14:01;34.23;;;7.10;;
8092;SDS011;4089;52.420;13.334;2023-06-10T02:16:28;38.63;;;6.80;;
8092;SDS011;4089;52.420;13.334;2023-06-10T02:18:55;34.77;;;6.57;;
8092;SDS011;4089;52.420;13.334;2023-06-10T02:21:22;39.97;;;6.93;;
8092;SDS011;4089;52.420;13.334;2023-06-10T02:23:49;34.43;;;6.27;;
8092;SDS011;4089;52.420;13.334;2023-06-10T02:26:16;35.30;;;6.60;;
8092;SDS011;4089;52.420;13.334;2023-06-10T02:28:43;37.77;;;6.53;;
8092;SDS011;4089;52.420;13.334;2023-06-10T02:31:10;41.53;;;6.70;;
8092;SDS011;4089;52.420;13.334;2023-06-10T02:33:36;34.07;;;6.10;;
8092;SDS011;4089;52.420;13.334;2023-06-10T02:36:06;34.43;;;6.90;;
8092;SDS011;4089;52.420;13.334;2023-06-10T02:38:33;36.83;;;7.00;;
8092;SDS011;4089;52.420;13.334;2023-06-10T02:41:00;37.17;;;6.40;;
8092;SDS011;4089;52.420;13.334;2023-06-10T02:43:27;39.40;;;6.87;;
8092;SDS011;4089;52.420;13.334;2023-06-10T02:45:54;44.47;;;7.33;;
8092;SDS011;4089;52.420;13.334;2023-06-10T02:48:23;30.60;;;6.37;;
8092;SDS011;4089;52.420;13.334;2023-06-10T02:50:50;38.97;;;6.00;;
8092;SDS011;4089;52.420;13.334;2023-06-10T02:53:17;36.67;;;6.20;;
8092;SDS011;4089;52.420;13.334;2023-06-10T02:55:44;38.77;;;6.73;;
8092;SDS011;4089;52.420;13.334;2023-06-10T02:58:10;35.10;;;7.03;;
8092;SDS011;4089;52.420;13.334;2023-06-10T03:00:37;32.23;;;6.57;;
8092;SDS011;4089;52.420;13.334;2023-06-10T03:03:07;37.40;;;7.23;;
8092;SDS011;4089;52.420;13.334;2023-06-10T03:05:34;32.83;;;7.03;;
8092;SDS011;4089;52.420;13.334;2023-06-10T03:08:01;34.93;;;5.97;;
8092;SDS011;4089;52.420;13.334;2023-06-10T03:10:28;38.93;;;7.20;;
8092;SDS011;4089;52.420;13.334;2023-06-10T03:12:54;38.00;;;7.40;;
8092;SDS011;4089;52.420;13.334;2023-06-10T03:15:21;37.80;;;7.30;;
8092;SDS011;4089;52.420;13.334;2023-06-10T03:17:48;35.07;;;6.63;;
8092;SDS011;4089;52.420;13.334;2023-06-10T03:20:15;40.20;;;6.90;;
8092;SDS011;4089;52.420;13.334;2023-06-10T03:22:43;35.47;;;6.63;;
8092;SDS011;4089;52.420;13.334;2023-06-10T03:25:09;39.97;;;6.87;;
8092;SDS011;4089;52.420;13.334;2023-06-10T03:27:41;38.47;;;7.80;;
8092;SDS011;4089;52.420;13.334;2023-06-10T03:30:08;38.87;;;6.90;;
8092;SDS011;4089;52.420;13.334;2023-06-10T03:32:36;34.27;;;7.20;;
8092;SDS011;4089;52.420;13.334;2023-06-10T03:35:03;35.37;;;6.83;;
8092;SDS011;4089;52.420;13.334;2023-06-10T03:37:31;34.10;;;6.80;;
8092;SDS011;4089;52.420;13.334;2023-06-10T03:39:58;36.43;;;7.20;;
8092;SDS011;4089;52.420;13.334;2023-06-10T03:42:25;39.90;;;7.00;;
8092;SDS011;4089;52.420;13.334;2023-06-10T03:44:52;36.20;;;7.80;;
8092;SDS011;4089;52.420;13.334;2023-06-10T03:47:18;38.27;;;7.93;;
8092;SDS011;4089;52.420;13.334;2023-06-10T03:49:45;38.80;;;9.10;;
8092;SDS011;4089;52.420;13.334;2023-06-10T03:52:12;34.43;;;7.63;;
8092;SDS011;4089;52.420;13.334;2023-06-10T03:54:39;36.97;;;7.83;;
8092;SDS011;4089;52.420;13.334;2023-06-10T03:57:06;36.80;;;7.53;;
8092;SDS011;4089;52.420;13.334;2023-06-10T03:59:33;42.47;;;8.00;;
8092;SDS011;4089;52.420;13.334;2023-06-10T04:01:59;35.93;;;7.07;;
8092;SDS011;4089;52.420;13.334;2023-06-10T04:04:27;33.33;;;7.63;;
8092;SDS011;4089;52.420;13.334;2023-06-10T04:06:54;38.03;;;7.77;;
8092;SDS011;4089;52.420;13.334;2023-06-10T04:09:21;35.70;;;7.27;;
8092;SDS011;4089;52.420;13.334;2023-06-10T04:11:47;35.67;;;7.57;;
8092;SDS011;4089;52.420;13.334;2023-06-10T04:14:14;36.20;;;7.67;;
8092;SDS011;4089;52.420;13.334;2023-06-10T04:16:41;33.37;;;7.63;;
8092;SDS011;4089;52.420;13.334;2023-06-10T04:19:09;39.60;;;7.70;;
8092;SDS011;4089;52.420;13.334;2023-06-10T04:21:36;36.40;;;7.73;;
8092;SDS011;4089;52.420;13.334;2023-06-10T04:24:03;37.03;;;6.73;;
8092;SDS011;4089;52.420;13.334;2023-06-10T04:26:31;35.97;;;7.90;;
8092;SDS011;4089;52.420;13.334;2023-06-10T04:28:57;36.80;;;8.00;;
8092;SDS011;4089;52.420;13.334;2023-06-10T04:31:24;34.37;;;6.70;;
8092;SDS011;4089;52.420;13.334;2023-06-10T04:33:51;37.50;;;8.83;;
8092;SDS011;4089;52.420;13.334;2023-06-10T04:36:18;37.53;;;8.17;;
8092;SDS011;4089;52.420;13.334;2023-06-10T04:38:45;38.33;;;7.40;;
8092;SDS011;4089;52.420;13.334;2023-06-10T04:41:12;36.83;;;8.40;;
8092;SDS011;4089;52.420;13.334;2023-06-10T04:43:39;33.37;;;7.77;;
8092;SDS011;4089;52.420;13.334;2023-06-10T04:46:06;31.80;;;7.80;;
8092;SDS011;4089;52.420;13.334;2023-06-10T04:48:34;37.10;;;8.17;;
8092;SDS011;4089;52.420;13.334;2023-06-10T04:51:02;30.67;;;7.40;;
8092;SDS011;4089;52.420;13.334;2023-06-10T04:53:28;36.67;;;8.57;;
8092;SDS011;4089;52.420;13.334;2023-06-10T04:55:56;35.87;;;7.90;;
8092;SDS011;4089;52.420;13.334;2023-06-10T04:58:24;32.17;;;8.37;;
8092;SDS011;4089;52.420;13.334;2023-06-10T05:00:51;36.50;;;8.60;;
8092;SDS011;4089;52.420;13.334;2023-06-10T05:03:17;41.13;;;8.77;;
8092;SDS011;4089;52.420;13.334;2023-06-10T05:05:44;34.20;;;8.03;;
8092;SDS011;4089;52.420;13.334;2023-06-10T05:08:11;32.33;;;8.00;;
8092;SDS011;4089;52.420;13.334;2023-06-10T05:10:38;38.43;;;8.97;;
8092;SDS011;4089;52.420;13.334;2023-06-10T05:13:05;34.27;;;8.50;;
8092;SDS011;4089;52.420;13.334;2023-06-10T05:15:32;39.27;;;9.83;;
8092;SDS011;4089;52.420;13.334;2023-06-10T05:17:59;33.63;;;7.77;;
8092;SDS011;4089;52.420;13.334;2023-06-10T05:20:26;35.03;;;8.73;;
8092;SDS011;4089;52.420;13.334;2023-06-10T05:22:54;36.90;;;9.10;;
8092;SDS011;4089;52.420;13.334;2023-06-10T05:25:21;33.10;;;7.90;;
8092;SDS011;4089;52.420;13.334;2023-06-10T05:27:48;34.07;;;7.43;;
8092;SDS011;4089;52.420;13.334;2023-06-10T05:30:15;34.03;;;8.63;;
8092;SDS011;4089;52.420;13.334;2023-06-10T05:32:44;31.20;;;8.43;;
8092;SDS011;4089;52.420;13.334;2023-06-10T05:35:11;37.23;;;8.67;;
8092;SDS011;4089;52.420;13.334;2023-06-10T05:37:38;33.97;;;7.90;;
8092;SDS011;4089;52.420;13.334;2023-06-10T05:40:05;30.83;;;8.87;;
8092;SDS011;4089;52.420;13.334;2023-06-10T05:42:33;31.73;;;8.57;;
8092;SDS011;4089;52.420;13.334;2023-06-10T05:44:59;35.93;;;8.43;;
8092;SDS011;4089;52.420;13.334;2023-06-10T05:47:27;26.20;;;7.63;;
8092;SDS011;4089;52.420;13.334;2023-06-10T05:49:54;33.43;;;7.90;;
8092;SDS011;4089;52.420;13.334;2023-06-10T05:52:21;29.23;;;8.13;;
8092;SDS011;4089;52.420;13.334;2023-06-10T05:54:48;30.70;;;8.33;;
8092;SDS011;4089;52.420;13.334;2023-06-10T05:57:16;35.27;;;8.00;;
8092;SDS011;4089;52.420;13.334;2023-06-10T05:59:43;29.10;;;8.80;;
8092;SDS011;4089;52.420;13.334;2023-06-10T06:02:10;31.90;;;8.63;;
8092;SDS011;4089;52.420;13.334;2023-06-10T06:04:37;30.73;;;7.33;;
8092;SDS011;4089;52.420;13.334;2023-06-10T06:07:04;33.30;;;8.13;;
8092;SDS011;4089;52.420;13.334;2023-06-10T06:09:31;36.43;;;9.30;;
8092;SDS011;4089;52.420;13.334;2023-06-10T06:11:58;33.50;;;8.10;;
8092;SDS011;4089;52.420;13.334;2023-06-10T06:14:25;36.60;;;8.17;;
8092;SDS011;4089;52.420;13.334;2023-06-10T06:16:52;32.13;;;9.07;;
8092;SDS011;4089;52.420;13.334;2023-06-10T06:19:19;30.17;;;8.50;;
8092;SDS011;4089;52.420;13.334;2023-06-10T06:21:46;36.23;;;8.77;;
8092;SDS011;4089;52.420;13.334;2023-06-10T06:24:13;33.30;;;8.00;;
8092;SDS011;4089;52.420;13.334;2023-06-10T06:26:41;30.40;;;8.13;;
8092;SDS011;4089;52.420;13.334;2023-06-10T06:29:08;39.73;;;8.17;;
8092;SDS011;4089;52.420;13.334;2023-06-10T06:31:35;33.53;;;8.00;;
8092;SDS011;4089;52.420;13.334;2023-06-10T06:34:03;29.87;;;8.73;;
8092;SDS011;4089;52.420;13.334;2023-06-10T06:36:29;30.63;;;7.70;;
8092;SDS011;4089;52.420;13.334;2023-06-10T06:38:56;26.97;;;8.03;;
8092;SDS011;4089;52.420;13.334;2023-06-10T06:41:27;33.60;;;10.77;;
8092;SDS011;4089;52.420;13.334;2023-06-10T06:43:54;29.90;;;8.47;;
8092;SDS011;4089;52.420;13.334;2023-06-10T06:46:21;34.20;;;9.13;;
8092;SDS011;4089;52.420;13.334;2023-06-10T06:48:48;32.07;;;8.60;;
8092;SDS011;4089;52.420;13.334;2023-06-10T06:51:15;34.00;;;8.83;;
8092;SDS011;4089;52.420;13.334;2023-06-10T06:53:43;37.47;;;9.50;;
8092;SDS011;4089;52.420;13.334;2023-06-10T06:56:11;27.97;;;8.23;;
8092;SDS011;4089;52.420;13.334;2023-06-10T06:58:38;33.60;;;9.37;;
8092;SDS011;4089;52.420;13.334;2023-06-10T07:01:05;29.30;;;8.53;;
8092;SDS011;4089;52.420;13.334;2023-06-10T07:03:32;31.70;;;8.63;;
8092;SDS011;4089;52.420;13.334;2023-06-10T07:05:59;28.40;;;8.97;;
8092;SDS011;4089;52.420;13.334;2023-06-10T07:08:26;31.70;;;8.20;;
8092;SDS011;4089;52.420;13.334;2023-06-10T07:10:53;33.80;;;9.00;;
8092;SDS011;4089;52.420;13.334;2023-06-10T07:13:20;37.20;;;9.40;;
8092;SDS011;4089;52.420;13.334;2023-06-10T07:15:47;31.80;;;8.23;;
8092;SDS011;4089;52.420;13.334;2023-06-10T07:18:14;30.77;;;8.73;;
8092;SDS011;4089;52.420;13.334;2023-06-10T07:20:42;30.30;;;8.90;;
8092;SDS011;4089;52.420;13.334;2023-06-10T07:23:09;31.40;;;9.00;;
8092;SDS011;4089;52.420;13.334;2023-06-10T07:25:36;32.80;;;9.03;;
8092;SDS011;4089;52.420;13.334;2023-06-10T07:28:03;29.07;;;8.50;;
8092;SDS011;4089;52.420;13.334;2023-06-10T07:30:29;36.27;;;9.20;;
8092;SDS011;4089;52.420;13.334;2023-06-10T07:32:56;34.93;;;9.13;;
8092;SDS011;4089;52.420;13.334;2023-06-10T07:35:23;37.40;;;9.40;;
8092;SDS011;4089;52.420;13.334;2023-06-10T07:37:50;30.03;;;8.97;;
8092;SDS011;4089;52.420;13.334;2023-06-10T07:40:17;36.30;;;8.37;;
8092;SDS011;4089;52.420;13.334;2023-06-10T07:42:44;30.17;;;8.20;;
8092;SDS011;4089;52.420;13.334;2023-06-10T07:45:11;35.50;;;8.80;;
8092;SDS011;4089;52.420;13.334;2023-06-10T07:47:38;37.17;;;8.90;;
8092;SDS011;4089;52.420;13.334;2023-06-10T07:50:05;33.17;;;9.23;;
8092;SDS011;4089;52.420;13.334;2023-06-10T07:52:32;36.97;;;9.47;;
8092;SDS011;4089;52.420;13.334;2023-06-10T07:54:58;34.40;;;9.63;;
8092;SDS011;4089;52.420;13.334;2023-06-10T07:57:25;37.07;;;9.43;;
8092;SDS011;4089;52.420;13.334;2023-06-10T07:59:52;39.87;;;9.10;;
8092;SDS011;4089;52.420;13.334;2023-06-10T08:02:21;51.43;;;9.30;;
8092;SDS011;4089;52.420;13.334;2023-06-10T08:04:50;38.03;;;9.63;;
8092;SDS011;4089;52.420;13.334;2023-06-10T08:07:17;32.40;;;9.53;;
8092;SDS011;4089;52.420;13.334;2023-06-10T08:09:45;32.03;;;9.40;;
8092;SDS011;4089;52.420;13.334;2023-06-10T08:12:12;33.30;;;8.50;;
8092;SDS011;4089;52.420;13.334;2023-06-10T08:14:39;36.37;;;8.60;;
8092;SDS011;4089;52.420;13.334;2023-06-10T08:17:06;35.13;;;9.47;;
8092;SDS011;4089;52.420;13.334;2023-06-10T08:19:33;42.30;;;9.27;;
8092;SDS011;4089;52.420;13.334;2023-06-10T08:22:00;31.83;;;8.90;;
8092;SDS011;4089;52.420;13.334;2023-06-10T08:24:26;31.37;;;8.70;;
8092;SDS011;4089;52.420;13.334;2023-06-10T08:26:53;32.60;;;9.23;;
8092;SDS011;4089;52.420;13.334;2023-06-10T08:29:23;35.27;;;9.17;;
8092;SDS011;4089;52.420;13.334;2023-06-10T08:31:50;28.97;;;8.90;;
8092;SDS011;4089;52.420;13.334;2023-06-10T08:34:16;42.13;;;10.17;;
8092;SDS011;4089;52.420;13.334;2023-06-10T08:36:44;31.20;;;8.40;;
8092;SDS011;4089;52.420;13.334;2023-06-10T08:39:11;34.30;;;8.30;;
8092;SDS011;4089;52.420;13.334;2023-06-10T08:41:40;35.07;;;9.77;;
8092;SDS011;4089;52.420;13.334;2023-06-10T08:44:12;35.97;;;9.40;;
8092;SDS011;4089;52.420;13.334;2023-06-10T08:46:41;40.13;;;9.10;;
8092;SDS011;4089;52.420;13.334;2023-06-10T08:49:11;40.10;;;9.77;;
8092;SDS011;4089;52.420;13.334;2023-06-10T08:51:43;29.13;;;7.97;;
8092;SDS011;4089;52.420;13.334;2023-06-10T08:54:15;35.10;;;9.40;;
8092;SDS011;4089;52.420;13.334;2023-06-10T08:56:47;31.87;;;8.70;;
8092;SDS011;4089;52.420;13.334;2023-06-10T08:59:17;38.97;;;9.67;;
8092;SDS011;4089;52.420;13.334;2023-06-10T09:01:46;31.20;;;8.27;;
8092;SDS011;4089;52.420;13.334;2023-06-10T09:04:13;32.53;;;8.93;;
8092;SDS011;4089;52.420;13.334;2023-06-10T09:06:42;37.63;;;8.77;;
8092;SDS011;4089;52.420;13.334;2023-06-10T09:09:10;32.23;;;9.70;;
8092;SDS011;4089;52.420;13.334;2023-06-10T09:11:38;29.27;;;8.60;;
8092;SDS011;4089;52.420;13.334;2023-06-10T09:14:05;36.30;;;9.50;;
8092;SDS011;4089;52.420;13.334;2023-06-10T09:16:32;28.47;;;8.20;;
8092;SDS011;4089;52.420;13.334;2023-06-10T09:18:59;30.87;;;9.53;;
8092;SDS011;4089;52.420;13.334;2023-06-10T09:21:26;29.43;;;8.60;;
8092;SDS011;4089;52.420;13.334;2023-06-10T09:23:54;32.80;;;8.90;;
8092;SDS011;4089;52.420;13.334;2023-06-10T09:26:21;33.93;;;9.60;;
8092;SDS011;4089;52.420;13.334;2023-06-10T09:29:04;35.83;;;9.50;;
8092;SDS011;4089;52.420;13.334;2023-06-10T09:31:32;34.67;;;9.20;;
8092;SDS011;4089;52.420;13.334;2023-06-10T09:34:08;33.97;;;8.90;;
8092;SDS011;4089;52.420;13.334;2023-06-10T09:36:39;37.67;;;9.00;;
8092;SDS011;4089;52.420;13.334;2023-06-10T09:39:14;32.80;;;8.70;;
8092;SDS011;4089;52.420;13.334;2023-06-10T09:41:42;37.80;;;8.53;;
8092;SDS011;4089;52.420;13.334;2023-06-10T09:44:17;34.30;;;9.23;;
8092;SDS011;4089;52.420;13.334;2023-06-10T09:46:46;36.43;;;8.50;;
8092;SDS011;4089;52.420;13.334;2023-06-10T09:49:15;35.40;;;9.03;;
8092;SDS011;4089;52.420;13.334;2023-06-10T09:51:52;35.67;;;8.50;;
8092;SDS011;4089;52.420;13.334;2023-06-10T09:54:20;30.53;;;8.30;;
8092;SDS011;4089;52.420;13.334;2023-06-10T09:56:48;32.90;;;8.50;;
8092;SDS011;4089;52.420;13.334;2023-06-10T09:59:16;32.83;;;10.30;;
8092;SDS011;4089;52.420;13.334;2023-06-10T10:01:57;34.07;;;9.10;;
8092;SDS011;4089;52.420;13.334;2023-06-10T10:04:24;38.53;;;9.07;;
8092;SDS011;4089;52.420;13.334;2023-06-10T10:06:52;34.50;;;8.43;;
8092;SDS011;4089;52.420;13.334;2023-06-10T10:09:19;35.60;;;8.87;;
8092;SDS011;4089;52.420;13.334;2023-06-10T10:11:45;39.70;;;8.90;;
8092;SDS011;4089;52.420;13.334;2023-06-10T10:14:15;43.90;;;8.60;;
8092;SDS011;4089;52.420;13.334;2023-06-10T10:16:44;35.83;;;8.63;;
8092;SDS011;4089;52.420;13.334;2023-06-10T10:19:16;35.13;;;8.03;;
8092;SDS011;4089;52.420;13.334;2023-06-10T10:21:52;35.63;;;8.57;;
8092;SDS011;4089;52.420;13.334;2023-06-10T10:24:21;36.93;;;7.47;;
8092;SDS011;4089;52.420;13.334;2023-06-10T10:26:50;33.57;;;8.57;;
8092;SDS011;4089;52.420;13.334;2023-06-10T10:29:52;39.47;;;8.63;;
8092;SDS011;4089;52.420;13.334;2023-06-10T10:32:13;31.83;;;8.20;;
8092;SDS011;4089;52.420;13.334;2023-06-10T10:34:44;30.30;;;8.43;;
8092;SDS011;4089;52.420;13.334;2023-06-10T10:37:19;34.80;;;8.40;;
8092;SDS011;4089;52.420;13.334;2023-06-10T10:39:47;33.70;;;8.20;;
8092;SDS011;4089;52.420;13.334;2023-06-10T10:42:14;31.57;;;8.10;;
8092;SDS011;4089;52.420;13.334;2023-06-10T10:44:42;34.27;;;8.30;;
8092;SDS011;4089;52.420;13.334;2023-06-10T10:47:10;32.60;;;9.13;;
8092;SDS011;4089;52.420;13.334;2023-06-10T10:49:38;34.03;;;8.23;;
8092;SDS011;4089;52.420;13.334;2023-06-10T10:52:11;33.47;;;8.17;;
8092;SDS011;4089;52.420;13.334;2023-06-10T10:54:41;31.63;;;8.23;;
8092;SDS011;4089;52.420;13.334;2023-06-10T10:57:11;28.87;;;7.07;;
8092;SDS011;4089;52.420;13.334;2023-06-10T11:05:05;26.40;;;6.10;;
8092;SDS011;4089;52.420;13.334;2023-06-10T11:07:34;34.07;;;7.07;;
8092;SDS011;4089;52.420;13.334;2023-06-10T11:15:18;30.90;;;6.33;;
8092;SDS011;4089;52.420;13.334;2023-06-10T11:26:15;27.93;;;6.77;;
8092;SDS011;4089;52.420;13.334;2023-06-10T11:31:29;33.63;;;7.20;;
8092;SDS011;4089;52.420;13.334;2023-06-10T11:33:58;28.53;;;6.90;;
8092;SDS011;4089;52.420;13.334;2023-06-10T11:36:31;29.90;;;7.30;;
8092;SDS011;4089;52.420;13.334;2023-06-10T11:39:00;30.27;;;7.20;;
8092;SDS011;4089;52.420;13.334;2023-06-10T11:41:29;33.20;;;7.00;;
8092;SDS011;4089;52.420;13.334;2023-06-10T11:44:01;32.13;;;7.00;;
8092;SDS011;4089;52.420;13.334;2023-06-10T11:46:35;34.73;;;7.17;;
8092;SDS011;4089;52.420;13.334;2023-06-10T11:49:04;30.00;;;7.10;;
8092;SDS011;4089;52.420;13.334;2023-06-10T11:51:35;29.20;;;7.20;;
8092;SDS011;4089;52.420;13.334;2023-06-10T11:54:10;29.43;;;7.07;;
8092;SDS011;4089;52.420;13.334;2023-06-10T11:56:44;34.30;;;7.00;;
8092;SDS011;4089;52.420;13.334;2023-06-10T11:59:16;32.47;;;7.90;;
8092;SDS011;4089;52.420;13.334;2023-06-10T12:02:17;29.93;;;7.60;;
8092;SDS011;4089;52.420;13.334;2023-06-10T12:04:45;27.97;;;6.50;;
8092;SDS011;4089;52.420;13.334;2023-06-10T12:07:19;30.80;;;7.47;;
8092;SDS011;4089;52.420;13.334;2023-06-10T12:09:46;28.73;;;6.90;;
8092;SDS011;4089;52.420;13.334;2023-06-10T12:12:16;29.07;;;7.10;;
8092;SDS011;4089;52.420;13.334;2023-06-10T12:20:24;34.20;;;6.73;;
8092;SDS011;4089;52.420;13.334;2023-06-10T12:22:52;28.27;;;6.60;;
8092;SDS011;4089;52.420;13.334;2023-06-10T12:25:24;28.17;;;6.00;;
8092;SDS011;4089;52.420;13.334;2023-06-10T12:27:53;29.57;;;5.80;;
8092;SDS011;4089;52.420;13.334;2023-06-10T12:30:22;29.37;;;5.87;;
8092;SDS011;4089;52.420;13.334;2023-06-10T12:32:51;28.30;;;5.70;;
8092;SDS011;4089;52.420;13.334;2023-06-10T12:35:22;30.73;;;6.20;;
8092;SDS011;4089;52.420;13.334;2023-06-10T12:38:03;30.83;;;5.67;;
8092;SDS011;4089;52.420;13.334;2023-06-10T12:40:34;32.40;;;5.80;;
8092;SDS011;4089;52.420;13.334;2023-06-10T12:43:03;34.43;;;5.83;;
8092;SDS011;4089;52.420;13.334;2023-06-10T12:45:31;28.17;;;5.77;;
8092;SDS011;4089;52.420;13.334;2023-06-10T12:50:37;30.27;;;6.53;;
8092;SDS011;4089;52.420;13.334;2023-06-10T12:53:05;33.70;;;6.37;;
8092;SDS011;4089;52.420;13.334;2023-06-10T12:55:32;33.93;;;7.83;;
8092;SDS011;4089;52.420;13.334;2023-06-10T12:58:00;29.33;;;7.20;;
8092;SDS011;4089;52.420;13.334;2023-06-10T13:00:27;31.83;;;7.80;;
8092;SDS011;4089;52.420;13.334;2023-06-10T13:02:56;35.67;;;7.83;;
8092;SDS011;4089;52.420;13.334;2023-06-10T13:05:24;31.37;;;7.40;;
8092;SDS011;4089;52.420;13.334;2023-06-10T13:07:50;32.40;;;7.90;;
8092;SDS011;4089;52.420;13.334;2023-06-10T13:10:18;30.93;;;7.33;;
8092;SDS011;4089;52.420;13.334;2023-06-10T13:12:50;32.63;;;7.50;;
8092;SDS011;4089;52.420;13.334;2023-06-10T13:15:17;33.87;;;7.87;;
8092;SDS011;4089;52.420;13.334;2023-06-10T13:17:44;36.43;;;8.20;;
8092;SDS011;4089;52.420;13.334;2023-06-10T13:20:18;32.33;;;8.10;;
8092;SDS011;4089;52.420;13.334;2023-06-10T13:22:47;31.43;;;8.60;;
8092;SDS011;4089;52.420;13.334;2023-06-10T13:25:14;31.20;;;7.43;;
8092;SDS011;4089;52.420;13.334;2023-06-10T13:27:41;32.00;;;8.20;;
8092;SDS011;4089;52.420;13.334;2023-06-10T13:30:09;40.40;;;8.00;;
8092;SDS011;4089;52.420;13.334;2023-06-10T13:32:37;33.97;;;8.00;;
8092;SDS011;4089;52.420;13.334;2023-06-10T13:35:04;33.10;;;8.17;;
8092;SDS011;4089;52.420;13.334;2023-06-10T13:37:32;36.87;;;8.33;;
8092;SDS011;4089;52.420;13.334;2023-06-10T13:40:03;34.93;;;7.40;;
8092;SDS011;4089;52.420;13.334;2023-06-10T13:42:31;34.87;;;7.10;;
8092;SDS011;4089;52.420;13.334;2023-06-10T13:44:58;36.77;;;7.60;;
8092;SDS011;4089;52.420;13.334;2023-06-10T13:47:25;32.60;;;7.37;;
8092;SDS011;4089;52.420;13.334;2023-06-10T13:49:52;37.50;;;7.27;;
8092;SDS011;4089;52.420;13.334;2023-06-10T13:52:19;39.93;;;7.30;;
8092;SDS011;4089;52.420;13.334;2023-06-10T13:54:45;34.17;;;6.70;;
8092;SDS011;4089;52.420;13.334;2023-06-10T13:57:12;38.50;;;8.17;;
8092;SDS011;4089;52.420;13.334;2023-06-10T13:59:39;37.77;;;6.70;;
8092;SDS011;4089;52.420;13.334;2023-06-10T14:02:06;35.20;;;6.40;;
8092;SDS011;4089;52.420;13.334;2023-06-10T14:04:33;30.90;;;7.20;;
8092;SDS011;4089;52.420;13.334;2023-06-10T14:06:59;31.13;;;6.87;;
8092;SDS011;4089;52.420;13.334;2023-06-10T14:09:36;34.33;;;7.87;;
8092;SDS011;4089;52.420;13.334;2023-06-10T14:12:03;34.03;;;6.70;;
8092;SDS011;4089;52.420;13.334;2023-06-10T14:14:31;35.47;;;7.50;;
8092;SDS011;4089;52.420;13.334;2023-06-10T14:16:59;36.90;;;7.87;;
8092;SDS011;4089;52.420;13.334;2023-06-10T14:19:26;37.20;;;8.10;;
8092;SDS011;4089;52.420;13.334;2023-06-10T14:21:53;33.87;;;7.20;;
8092;SDS011;4089;52.420;13.334;2023-06-10T14:24:21;31.63;;;7.27;;
8092;SDS011;4089;52.420;13.334;2023-06-10T14:26:48;32.37;;;8.23;;
8092;SDS011;4089;52.420;13.334;2023-06-10T14:29:15;33.77;;;8.27;;
8092;SDS011;4089;52.420;13.334;2023-06-10T14:31:43;37.03;;;9.13;;
8092;SDS011;4089;52.420;13.334;2023-06-10T14:34:10;38.70;;;7.43;;
8092;SDS011;4089;52.420;13.334;2023-06-10T14:36:37;35.90;;;7.60;;
8092;SDS011;4089;52.420;13.334;2023-06-10T14:39:03;35.70;;;7.90;;
8092;SDS011;4089;52.420;13.334;2023-06-10T14:41:30;34.43;;;7.33;;
8092;SDS011;4089;52.420;13.334;2023-06-10T14:43:57;33.43;;;7.13;;
8092;SDS011;4089;52.420;13.334;2023-06-10T14:46:24;45.27;;;8.13;;
8092;SDS011;4089;52.420;13.334;2023-06-10T14:48:51;33.50;;;6.90;;
8092;SDS011;4089;52.420;13.334;2023-06-10T14:51:18;30.40;;;6.60;;
8092;SDS011;4089;52.420;13.334;2023-06-10T14:53:47;32.03;;;7.60;;
8092;SDS011;4089;52.420;13.334;2023-06-10T14:56:14;33.03;;;6.43;;
8092;SDS011;4089;52.420;13.334;2023-06-10T14:58:40;35.03;;;6.63;;
8092;SDS011;4089;52.420;13.334;2023-06-10T15:01:07;32.27;;;6.00;;
8092;SDS011;4089;52.420;13.334;2023-06-10T15:03:35;36.60;;;6.33;;
8092;SDS011;4089;52.420;13.334;2023-06-10T15:06:05;34.30;;;6.60;;
8092;SDS011;4089;52.420;13.334;2023-06-10T15:08:32;30.13;;;5.97;;
8092;SDS011;4089;52.420;13.334;2023-06-10T15:10:59;35.43;;;6.37;;
8092;SDS011;4089;52.420;13.334;2023-06-10T15:13:28;34.53;;;6.90;;
8092;SDS011;4089;52.420;13.334;2023-06-10T15:15:55;34.07;;;6.30;;
8092;SDS011;4089;52.420;13.334;2023-06-10T15:18:22;34.70;;;6.53;;
8092;SDS011;4089;52.420;13.334;2023-06-10T15:20:49;32.40;;;6.13;;
8092;SDS011;4089;52.420;13.334;2023-06-10T15:23:15;31.23;;;6.17;;
8092;SDS011;4089;52.420;13.334;2023-06-10T15:25:42;30.47;;;6.73;;